createdAt,value
2023-01-08T00:00:18.906Z,100518.31
2023-01-08T00:02:46.551Z,100507.16
2023-01-08T00:05:13.986Z,100510.56
2023-01-08T00:07:43.227Z,100499.34
2023-01-08T00:10:11.096Z,100492.22
2023-01-08T00:12:38.725Z,100500.22
2023-01-08T00:15:07.306Z,100490.59
2023-01-08T00:17:36.113Z,100494.06
2023-01-08T00:20:03.634Z,100495.03
2023-01-08T00:22:31.063Z,100499.34
2023-01-08T00:24:58.597Z,100482.09
2023-01-08T00:27:26.054Z,100479.53
2023-01-08T00:29:53.537Z,100482.09
2023-01-08T00:32:21.046Z,100483.81
2023-01-08T00:34:49.798Z,100476.88
2023-01-08T00:37:18.923Z,100470.81
2023-01-08T00:39:46.517Z,100468.25
2023-01-08T00:42:14.143Z,100458.44
2023-01-08T00:44:41.569Z,100452.59
2023-01-08T00:47:09.067Z,100454.38
2023-01-08T00:49:36.473Z,100454.47
2023-01-08T00:52:07.711Z,100446.00
2023-01-08T00:54:35.235Z,100444.00
2023-01-08T00:57:02.659Z,100444.94
2023-01-08T00:59:30.074Z,100451.06
2023-01-08T01:01:57.655Z,100445.84
2023-01-08T01:04:26.760Z,100443.28
2023-01-08T01:06:54.233Z,100438.97
2023-01-08T01:09:23.044Z,100432.97
2023-01-08T01:11:50.485Z,100430.38
2023-01-08T01:14:18.072Z,100435.53
2023-01-08T01:16:47.601Z,100435.53
2023-01-08T01:19:15.529Z,100430.34
2023-01-08T01:21:43.427Z,100432.00
2023-01-08T01:24:13.527Z,100439.69
2023-01-08T01:26:42.604Z,100439.81
2023-01-08T01:29:10.183Z,100433.78
2023-01-08T01:31:37.606Z,100419.97
2023-01-08T01:34:05.110Z,100421.66
2023-01-08T01:36:32.565Z,100425.97
2023-01-08T01:39:00.013Z,100417.31
2023-01-08T01:41:29.773Z,100418.09
2023-01-08T01:44:00.527Z,100431.97
2023-01-08T01:46:37.667Z,100437.13
2023-01-08T01:49:09.708Z,100418.22
2023-01-08T01:51:39.288Z,100417.22
2023-01-08T01:54:10.626Z,100407.84
2023-01-08T01:56:38.206Z,100403.56
2023-01-08T01:59:07.198Z,100403.56
2023-01-08T02:01:35.589Z,100405.25
2023-01-08T02:04:03.134Z,100411.25
2023-01-08T02:06:38.197Z,100405.72
2023-01-08T02:09:15.300Z,100390.44
2023-01-08T02:11:48.228Z,100401.78
2023-01-08T02:14:26.138Z,100395.75
2023-01-08T02:16:58.117Z,100393.97
2023-01-08T02:19:39.578Z,100394.16
2023-01-08T02:22:21.425Z,100383.00
2023-01-08T02:24:56.285Z,100370.78
2023-01-08T02:27:29.134Z,100357.66
2023-01-08T02:29:58.139Z,100354.38
2023-01-08T02:32:27.843Z,100362.94
2023-01-08T02:34:56.058Z,100351.00
2023-01-08T02:37:23.672Z,100355.97
2023-01-08T02:40:04.122Z,100351.00
2023-01-08T02:42:41.468Z,100353.91
2023-01-08T02:45:20.964Z,100349.84
2023-01-08T02:47:55.097Z,100355.94
2023-01-08T02:50:26.052Z,100346.19
2023-01-08T02:52:59.528Z,100352.66
2023-01-08T02:55:29.639Z,100347.28
2023-01-08T02:57:59.716Z,100333.22
2023-01-08T03:00:28.656Z,100328.44
2023-01-08T03:03:04.616Z,100330.28
2023-01-08T03:05:32.485Z,100319.75
2023-01-08T03:07:59.940Z,100314.75
2023-01-08T03:10:31.231Z,100312.13
2023-01-08T03:13:04.803Z,100322.44
2023-01-08T03:15:36.147Z,100323.28
2023-01-08T03:18:10.749Z,100317.34
2023-01-08T03:20:39.601Z,100314.72
2023-01-08T03:23:10.721Z,100317.28
2023-01-08T03:25:41.388Z,100312.13
2023-01-08T03:28:14.345Z,100311.25
2023-01-08T03:30:43.427Z,100316.34
2023-01-08T03:33:13.098Z,100311.97
2023-01-08T03:35:44.413Z,100312.66
2023-01-08T03:38:16.124Z,100308.78
2023-01-08T03:40:46.801Z,100303.09
2023-01-08T03:43:15.673Z,100313.78
2023-01-08T03:45:51.696Z,100301.16
2023-01-08T03:48:22.201Z,100301.25
2023-01-08T03:50:49.834Z,100300.09
2023-01-08T03:53:17.473Z,100305.81
2023-01-08T03:55:45.149Z,100310.22
2023-01-08T03:58:12.606Z,100316.34
2023-01-08T04:00:41.388Z,100304.19
2023-01-08T04:03:09.639Z,100308.25
2023-01-08T04:05:37.250Z,100310.13
2023-01-08T04:08:04.872Z,100305.81
2023-01-08T04:10:32.309Z,100314.94
2023-01-08T04:12:59.731Z,100308.97
2023-01-08T04:15:27.226Z,100307.28
2023-01-08T04:17:56.108Z,100309.44
2023-01-08T04:20:23.590Z,100315.19
2023-01-08T04:22:51.055Z,100307.66
2023-01-08T04:25:19.386Z,100316.25
2023-01-08T04:27:46.789Z,100315.13
2023-01-08T04:30:14.807Z,100304.25
2023-01-08T04:32:42.252Z,100302.31
2023-01-08T04:35:11.259Z,100290.34
2023-01-08T04:37:38.762Z,100286.72
2023-01-08T04:40:07.454Z,100279.81
2023-01-08T04:42:34.878Z,100277.41
2023-01-08T04:45:02.415Z,100277.97
2023-01-08T04:47:29.944Z,100273.06
2023-01-08T04:49:57.397Z,100274.84
2023-01-08T04:52:26.462Z,100265.63
2023-01-08T04:54:53.872Z,100262.88
2023-01-08T04:57:21.665Z,100263.78
2023-01-08T04:59:49.060Z,100277.41
2023-01-08T05:02:16.660Z,100274.84
2023-01-08T05:04:44.181Z,100276.66
2023-01-08T05:07:11.674Z,100266.28
2023-01-08T05:09:40.452Z,100271.44
2023-01-08T05:12:08.290Z,100271.50
2023-01-08T05:14:35.712Z,100269.84
2023-01-08T05:17:03.186Z,100269.50
2023-01-08T05:19:30.608Z,100264.59
2023-01-08T05:21:58.293Z,100255.31
2023-01-08T05:24:25.801Z,100254.63
2023-01-08T05:26:54.533Z,100251.84
2023-01-08T05:29:22.083Z,100245.84
2023-01-08T05:31:49.500Z,100247.50
2023-01-08T05:34:16.891Z,100237.41
2023-01-08T05:36:44.453Z,100251.09
2023-01-08T05:39:12.028Z,100241.38
2023-01-08T05:41:39.493Z,100247.66
2023-01-08T05:44:08.285Z,100246.00
2023-01-08T05:46:35.778Z,100230.66
2023-01-08T05:49:03.205Z,100234.97
2023-01-08T05:51:30.658Z,100234.13
2023-01-08T05:53:58.189Z,100228.91
2023-01-08T05:56:25.630Z,100222.88
2023-01-08T05:58:54.820Z,100230.72
2023-01-08T06:01:23.976Z,100224.69
2023-01-08T06:03:51.513Z,100223.91
2023-01-08T06:06:18.955Z,100219.69
2023-01-08T06:08:46.402Z,100215.38
2023-01-08T06:11:13.934Z,100211.97
2023-01-08T06:13:43.479Z,100218.84
2023-01-08T06:16:11.176Z,100220.53
2023-01-08T06:18:40.150Z,100218.81
2023-01-08T06:21:07.784Z,100208.56
2023-01-08T06:23:35.282Z,100211.94
2023-01-08T06:26:04.180Z,100203.38
2023-01-08T06:28:32.573Z,100208.59
2023-01-08T06:31:00.368Z,100199.13
2023-01-08T06:33:28.102Z,100207.69
2023-01-08T06:36:01.044Z,100208.53
2023-01-08T06:38:28.539Z,100206.91
2023-01-08T06:40:55.961Z,100205.16
2023-01-08T06:43:24.125Z,100206.00
2023-01-08T06:45:54.791Z,100208.56
2023-01-08T06:48:22.249Z,100205.16
2023-01-08T06:50:49.672Z,100206.66
2023-01-08T06:53:18.425Z,100205.09
2023-01-08T06:55:46.026Z,100200.03
2023-01-08T06:58:13.996Z,100211.81
2023-01-08T07:00:41.708Z,100207.66
2023-01-08T07:03:09.287Z,100213.72
2023-01-08T07:05:36.907Z,100214.63
2023-01-08T07:08:04.514Z,100201.78
2023-01-08T07:10:35.383Z,100201.78
2023-01-08T07:13:02.792Z,100199.19
2023-01-08T07:15:30.286Z,100198.31
2023-01-08T07:17:57.770Z,100198.31
2023-01-08T07:20:25.258Z,100200.88
2023-01-08T07:22:52.695Z,100200.03
2023-01-08T07:25:20.070Z,100196.59
2023-01-08T07:27:50.180Z,100196.59
2023-01-08T07:30:28.956Z,100207.81
2023-01-08T07:33:00.436Z,100203.50
2023-01-08T07:35:28.220Z,100217.25
2023-01-08T07:37:56.190Z,100214.69
2023-01-08T07:40:23.661Z,100218.94
2023-01-08T07:43:00.341Z,100218.09
2023-01-08T07:45:28.162Z,100211.22
2023-01-08T07:47:57.610Z,100223.16
2023-01-08T07:50:25.068Z,100224.03
2023-01-08T07:52:52.519Z,100215.50
2023-01-08T07:55:19.930Z,100212.03
2023-01-08T07:57:47.366Z,100213.78
2023-01-08T08:00:16.823Z,100217.09
2023-01-08T08:02:44.358Z,100205.19
2023-01-08T08:05:11.973Z,100204.34
2023-01-08T08:07:39.482Z,100205.09
2023-01-08T08:10:07.715Z,100202.50
2023-01-08T08:12:35.171Z,100193.19
2023-01-08T08:15:02.612Z,100186.28
2023-01-08T08:17:31.296Z,100191.44
2023-01-08T08:19:58.788Z,100185.44
2023-01-08T08:22:26.532Z,100198.34
2023-01-08T08:24:53.945Z,100196.63
2023-01-08T08:27:21.338Z,100194.91
2023-01-08T08:29:48.787Z,100190.63
2023-01-08T08:32:16.207Z,100194.78
2023-01-08T08:34:44.955Z,100187.94
2023-01-08T08:37:12.379Z,100179.44
2023-01-08T08:39:39.774Z,100179.41
2023-01-08T08:42:07.283Z,100162.28
2023-01-08T08:44:34.695Z,100160.56
2023-01-08T08:47:02.192Z,100164.00
2023-01-08T08:49:29.650Z,100165.69
2023-01-08T08:51:58.372Z,100163.13
2023-01-08T08:54:25.804Z,100172.56
2023-01-08T08:56:53.196Z,100169.16
2023-01-08T08:59:20.724Z,100166.56
2023-01-08T09:01:48.292Z,100165.69
2023-01-08T09:04:15.808Z,100163.16
2023-01-08T09:06:43.197Z,100153.69
2023-01-08T09:09:11.940Z,100151.09
2023-01-08T09:11:39.355Z,100152.81
2023-01-08T09:14:06.820Z,100144.25
2023-01-08T09:16:36.729Z,100133.06
2023-01-08T09:19:04.563Z,100133.91
2023-01-08T09:21:31.990Z,100121.00
2023-01-08T09:23:59.466Z,100121.03
2023-01-08T09:26:30.190Z,100126.97
2023-01-08T09:28:59.253Z,100139.88
2023-01-08T09:31:27.070Z,100142.53
2023-01-08T09:33:54.592Z,100149.34
2023-01-08T09:36:22.047Z,100157.94
2023-01-08T09:38:49.438Z,100155.34
2023-01-08T09:41:20.713Z,100155.38
2023-01-08T09:43:53.647Z,100153.69
2023-01-08T09:46:25.061Z,100148.44
2023-01-08T09:48:53.408Z,100150.06
2023-01-08T09:51:21.944Z,100160.88
2023-01-08T09:53:56.013Z,100166.03
2023-01-08T09:56:23.533Z,100166.88
2023-01-08T09:58:53.807Z,100168.66
2023-01-08T10:01:28.042Z,100162.34
2023-01-08T10:04:01.312Z,100163.56
2023-01-08T10:06:28.738Z,100163.59
2023-01-08T10:08:56.178Z,100150.53
2023-01-08T10:11:25.214Z,100148.13
2023-01-08T10:13:56.573Z,100144.09
2023-01-08T10:16:30.411Z,100150.94
2023-01-08T10:18:58.535Z,100142.41
2023-01-08T10:21:31.492Z,100135.59
2023-01-08T10:23:58.916Z,100135.59
2023-01-08T10:26:28.839Z,100133.03
2023-01-08T10:29:15.953Z,100126.94
2023-01-08T10:31:52.046Z,100131.22
2023-01-08T10:34:27.531Z,100125.34
2023-01-08T10:36:56.007Z,100122.69
2023-01-08T10:39:26.430Z,100120.13
2023-01-08T10:41:57.771Z,100117.53
2023-01-08T10:44:27.269Z,100119.25
2023-01-08T10:46:58.344Z,100112.47
2023-01-08T10:49:33.071Z,100112.41
2023-01-08T10:52:01.508Z,100115.84
2023-01-08T10:54:37.136Z,100112.38
2023-01-08T10:57:19.927Z,100102.09
2023-01-08T10:59:48.667Z,100108.09
2023-01-08T11:02:25.393Z,100113.19
2023-01-08T11:04:53.693Z,100114.09
2023-01-08T11:07:24.175Z,100109.81
2023-01-08T11:09:53.762Z,100103.81
2023-01-08T11:12:33.100Z,100094.34
2023-01-08T11:15:02.615Z,100093.50
2023-01-08T11:17:30.741Z,100090.00
2023-01-08T11:20:09.029Z,100085.72
2023-01-08T11:22:36.450Z,100088.19
2023-01-08T11:25:04.339Z,100086.44
2023-01-08T11:27:34.179Z,100074.47
2023-01-08T11:30:06.861Z,100072.81
2023-01-08T11:32:42.930Z,100058.19
2023-01-08T11:35:15.976Z,100052.97
2023-01-08T11:37:49.947Z,100050.22
2023-01-08T11:40:19.358Z,100040.09
2023-01-08T11:43:11.507Z,100052.03
2023-01-08T11:45:54.365Z,100055.44
2023-01-08T11:48:36.351Z,100059.78
2023-01-08T11:51:18.969Z,100043.31
2023-01-08T11:53:54.140Z,100053.97
2023-01-08T11:56:37.346Z,100039.16
2023-01-08T11:59:14.365Z,100047.94
2023-01-08T12:01:56.958Z,100041.78
2023-01-08T12:04:45.191Z,100036.63
2023-01-08T12:07:19.974Z,100034.66
2023-01-08T12:09:54.635Z,100028.56
2023-01-08T12:12:39.857Z,100026.03
2023-01-08T12:15:17.479Z,100003.91
2023-01-08T12:18:03.213Z,100012.69
2023-01-08T12:20:37.565Z,100013.50
2023-01-08T12:23:17.070Z,100016.63
2023-01-08T12:26:02.363Z,100015.66
2023-01-08T12:28:45.137Z,100013.16
2023-01-08T12:31:30.429Z,100007.03
2023-01-08T12:34:07.804Z,99988.97
2023-01-08T12:36:40.863Z,100000.91
2023-01-08T12:39:13.440Z,100004.63
2023-01-08T12:41:44.746Z,100010.44
2023-01-08T12:44:13.147Z,100010.44
2023-01-08T12:46:46.885Z,100008.16
2023-01-08T12:49:30.895Z,100015.72
2023-01-08T12:52:08.509Z,100010.72
2023-01-08T12:54:45.319Z,100003.75
2023-01-08T12:57:17.482Z,99998.63
2023-01-08T12:59:51.884Z,99991.66
2023-01-08T13:02:33.750Z,99992.81
2023-01-08T13:05:13.918Z,99991.00
2023-01-08T13:07:45.989Z,99991.00
2023-01-08T13:10:24.969Z,99991.00
2023-01-08T13:12:55.061Z,99989.28
2023-01-08T13:15:25.857Z,99984.88
2023-01-08T13:17:55.912Z,99990.94
2023-01-08T13:20:27.990Z,99992.53
2023-01-08T13:22:57.514Z,99997.72
2023-01-08T13:25:31.653Z,99988.41
2023-01-08T13:27:59.595Z,99984.03
2023-01-08T13:30:40.181Z,99983.16
2023-01-08T13:33:38.043Z,99982.22
2023-01-08T13:36:22.421Z,99977.09
2023-01-08T13:39:06.382Z,99965.19
2023-01-08T13:41:35.152Z,99964.38
2023-01-08T13:44:05.322Z,99973.03
2023-01-08T13:46:37.213Z,99969.59
2023-01-08T13:49:06.435Z,99964.41
2023-01-08T13:51:42.601Z,99962.59
2023-01-08T13:54:32.165Z,99971.44
2023-01-08T13:57:05.649Z,99971.31
2023-01-08T13:59:39.939Z,99968.72
2023-01-08T14:02:24.117Z,99960.94
2023-01-08T14:04:52.516Z,99952.28
2023-01-08T14:07:21.829Z,99946.38
2023-01-08T14:09:49.256Z,99951.41
2023-01-08T14:12:20.474Z,99953.28
2023-01-08T14:14:51.904Z,99955.88
2023-01-08T14:17:23.200Z,99949.00
2023-01-08T14:19:50.894Z,99949.13
2023-01-08T14:22:23.086Z,99947.25
2023-01-08T14:24:56.151Z,99947.34
2023-01-08T14:27:27.015Z,99954.09
2023-01-08T14:29:54.614Z,99948.16
2023-01-08T14:32:24.168Z,99956.66
2023-01-08T14:34:54.106Z,99952.44
2023-01-08T14:37:22.942Z,99952.38
2023-01-08T14:39:54.345Z,99948.94
2023-01-08T14:42:44.105Z,99951.56
2023-01-08T14:45:19.424Z,99944.66
2023-01-08T14:47:49.388Z,99955.06
2023-01-08T14:50:20.973Z,99949.88
2023-01-08T14:52:51.656Z,99941.31
2023-01-08T14:55:21.203Z,99942.13
2023-01-08T14:57:51.088Z,99949.03
2023-01-08T15:00:22.360Z,99942.06
2023-01-08T15:02:50.659Z,99942.16
2023-01-08T15:05:21.022Z,99945.59
2023-01-08T15:08:00.179Z,99944.72
2023-01-08T15:10:38.384Z,99945.69
2023-01-08T15:13:07.641Z,99932.75
2023-01-08T15:15:39.018Z,99936.16
2023-01-08T15:18:08.963Z,99941.34
2023-01-08T15:20:37.396Z,99945.53
2023-01-08T15:23:06.404Z,99954.16
2023-01-08T15:25:34.152Z,99940.38
2023-01-08T15:28:04.325Z,99931.88
2023-01-08T15:30:37.077Z,99931.00
2023-01-08T15:33:09.438Z,99931.94
2023-01-08T15:35:36.894Z,99932.75
2023-01-08T15:38:07.128Z,99930.13
2023-01-08T15:40:34.528Z,99931.78
2023-01-08T15:43:10.047Z,99931.81
2023-01-08T15:45:38.774Z,99936.19
2023-01-08T15:48:07.396Z,99934.50
2023-01-08T15:50:38.600Z,99937.03
2023-01-08T15:53:13.000Z,99943.97
2023-01-08T15:55:43.409Z,99940.44
2023-01-08T15:58:12.292Z,99947.47
2023-01-08T16:00:40.398Z,99949.97
2023-01-08T16:03:08.231Z,99937.97
2023-01-08T16:05:36.965Z,99942.25
2023-01-08T16:08:05.745Z,99945.72
2023-01-08T16:10:34.878Z,99947.66
2023-01-08T16:13:02.870Z,99942.28
2023-01-08T16:15:30.967Z,99948.25
2023-01-08T16:17:59.848Z,99943.03
2023-01-08T16:20:28.080Z,99943.91
2023-01-08T16:22:57.121Z,99950.19
2023-01-08T16:25:25.174Z,99945.72
2023-01-08T16:27:55.044Z,99938.78
2023-01-08T16:30:22.485Z,99935.31
2023-01-08T16:32:52.230Z,99933.72
2023-01-08T16:35:20.623Z,99924.09
2023-01-08T16:37:48.249Z,99925.00
2023-01-08T16:40:15.853Z,99923.22
2023-01-08T16:42:43.274Z,99918.94
2023-01-08T16:45:12.161Z,99924.13
2023-01-08T16:47:40.670Z,99924.09
2023-01-08T16:50:09.603Z,99923.28
2023-01-08T16:52:38.540Z,99924.09
2023-01-08T16:55:07.190Z,99914.63
2023-01-08T16:57:34.666Z,99916.38
2023-01-08T17:00:05.487Z,99909.53
2023-01-08T17:02:34.287Z,99902.59
2023-01-08T17:05:01.709Z,99895.78
2023-01-08T17:07:29.242Z,99895.88
2023-01-08T17:09:56.632Z,99886.31
2023-01-08T17:12:24.030Z,99889.81
2023-01-08T17:14:51.516Z,99895.78
2023-01-08T17:17:18.978Z,99899.31
2023-01-08T17:19:47.725Z,99899.19
2023-01-08T17:22:15.156Z,99884.63
2023-01-08T17:24:42.751Z,99885.50
2023-01-08T17:27:11.260Z,99879.63
2023-01-08T17:29:38.712Z,99875.25
2023-01-08T17:32:06.732Z,99873.59
2023-01-08T17:34:34.325Z,99870.22
2023-01-08T17:37:03.091Z,99871.03
2023-01-08T17:39:30.745Z,99865.03
2023-01-08T17:42:15.795Z,99871.94
2023-01-08T17:44:43.267Z,99871.13
2023-01-08T17:47:12.153Z,99863.31
2023-01-08T17:49:39.858Z,99860.69
2023-01-08T17:52:09.709Z,99859.91
2023-01-08T17:54:37.247Z,99859.09
2023-01-08T17:57:04.827Z,99860.13
2023-01-08T17:59:32.382Z,99861.69
2023-01-08T18:01:59.897Z,99871.13
2023-01-08T18:04:27.716Z,99861.69
2023-01-08T18:06:55.289Z,99864.31
2023-01-08T18:09:24.078Z,99863.44
2023-01-08T18:11:51.647Z,99865.13
2023-01-08T18:14:19.245Z,99852.28
2023-01-08T18:16:47.810Z,99855.63
2023-01-08T18:19:16.724Z,99854.81
2023-01-08T18:21:44.575Z,99851.44
2023-01-08T18:24:12.227Z,99858.31
2023-01-08T18:26:41.333Z,99851.31
2023-01-08T18:29:09.405Z,99855.66
2023-01-08T18:31:36.844Z,99851.38
2023-01-08T18:34:04.648Z,99848.78
2023-01-08T18:36:32.086Z,99852.28
2023-01-08T18:39:00.193Z,99855.69
2023-01-08T18:41:45.006Z,99847.09
2023-01-08T18:44:13.819Z,99838.50
2023-01-08T18:46:41.240Z,99835.16
2023-01-08T18:49:08.658Z,99822.25
2023-01-08T18:51:36.161Z,99825.72
2023-01-08T18:54:04.487Z,99840.34
2023-01-08T18:56:33.578Z,99832.53
2023-01-08T18:59:01.165Z,99829.16
2023-01-08T19:01:30.306Z,99825.72
2023-01-08T19:03:57.930Z,99817.16
2023-01-08T19:06:25.939Z,99824.84
2023-01-08T19:08:55.656Z,99822.31
2023-01-08T19:11:24.595Z,99824.00
2023-01-08T19:13:55.189Z,99817.22
2023-01-08T19:16:22.757Z,99813.69
2023-01-08T19:18:51.808Z,99822.34
2023-01-08T19:21:19.829Z,99816.28
2023-01-08T19:23:47.685Z,99818.75
2023-01-08T19:26:15.925Z,99815.31
2023-01-08T19:28:44.036Z,99821.34
2023-01-08T19:31:13.690Z,99819.56
2023-01-08T19:33:41.534Z,99817.13
2023-01-08T19:36:12.797Z,99808.47
2023-01-08T19:38:40.600Z,99818.00
2023-01-08T19:41:30.781Z,99817.06
2023-01-08T19:43:58.247Z,99817.06
2023-01-08T19:46:26.134Z,99815.34
2023-01-08T19:48:56.664Z,99810.16
2023-01-08T19:51:25.846Z,99820.47
2023-01-08T19:53:53.312Z,99816.16
2023-01-08T19:56:20.881Z,99815.31
2023-01-08T19:58:48.771Z,99814.69
2023-01-08T20:01:18.322Z,99802.66
2023-01-08T20:03:46.030Z,99799.97
2023-01-08T20:06:17.343Z,99793.03
2023-01-08T20:08:46.447Z,99790.38
2023-01-08T20:11:15.696Z,99788.00
2023-01-08T20:13:43.163Z,99784.47
2023-01-08T20:16:13.865Z,99782.78
2023-01-08T20:18:41.828Z,99775.03
2023-01-08T20:21:11.597Z,99778.53
2023-01-08T20:23:39.744Z,99775.91
2023-01-08T20:26:10.919Z,99781.09
2023-01-08T20:28:39.880Z,99771.69
2023-01-08T20:31:09.181Z,99770.78
2023-01-08T20:33:37.307Z,99768.28
2023-01-08T20:36:08.496Z,99758.91
2023-01-08T20:38:36.063Z,99765.72
2023-01-08T20:41:06.527Z,99766.66
2023-01-08T20:43:36.135Z,99764.00
2023-01-08T20:46:04.858Z,99754.50
2023-01-08T20:48:37.001Z,99764.13
2023-01-08T20:51:12.599Z,99752.69
2023-01-08T20:53:40.694Z,99751.28
2023-01-08T20:56:10.932Z,99748.41
2023-01-08T20:58:41.925Z,99728.47
2023-01-08T21:01:11.171Z,99731.63
2023-01-08T21:03:39.389Z,99731.34
2023-01-08T21:06:07.883Z,99741.41
2023-01-08T21:08:35.976Z,99736.38
2023-01-08T21:11:06.307Z,99734.47
2023-01-08T21:13:34.349Z,99738.69
2023-01-08T21:16:07.453Z,99735.25
2023-01-08T21:18:44.907Z,99734.81
2023-01-08T21:21:13.731Z,99728.69
2023-01-08T21:23:41.377Z,99737.97
2023-01-08T21:26:11.956Z,99727.72
2023-01-08T21:28:40.417Z,99723.50
2023-01-08T21:31:11.456Z,99717.44
2023-01-08T21:33:39.586Z,99720.91
2023-01-08T21:36:09.447Z,99711.72
2023-01-08T21:38:37.675Z,99712.50
2023-01-08T21:41:06.831Z,99716.00
2023-01-08T21:43:48.802Z,99717.63
2023-01-08T21:46:18.420Z,99716.75
2023-01-08T21:48:49.858Z,99705.56
2023-01-08T21:51:40.761Z,99702.94
2023-01-08T21:54:08.235Z,99697.00
2023-01-08T21:56:35.707Z,99697.84
2023-01-08T21:59:03.131Z,99695.16
2023-01-08T22:01:31.979Z,99691.81
2023-01-08T22:03:59.472Z,99692.09
2023-01-08T22:06:27.011Z,99680.84
2023-01-08T22:08:56.868Z,99681.81
2023-01-08T22:11:24.578Z,99680.13
2023-01-08T22:13:52.080Z,99676.47
2023-01-08T22:16:19.574Z,99671.53
2023-01-08T22:18:48.371Z,99672.19
2023-01-08T22:21:15.792Z,99666.91
2023-01-08T22:23:43.337Z,99661.81
2023-01-08T22:26:13.115Z,99669.59
2023-01-08T22:28:41.070Z,99667.84
2023-01-08T22:31:10.219Z,99664.34
2023-01-08T22:33:38.594Z,99660.09
2023-01-08T22:36:10.334Z,99657.56
2023-01-08T22:38:38.665Z,99662.63
2023-01-08T22:41:15.226Z,99657.53
2023-01-08T22:43:42.684Z,99649.06
2023-01-08T22:46:13.502Z,99659.44
2023-01-08T22:48:40.937Z,99645.69
2023-01-08T22:51:10.204Z,99654.25
2023-01-08T22:53:37.966Z,99649.06
2023-01-08T22:56:10.529Z,99640.56
2023-01-08T22:58:37.945Z,99635.41
2023-01-08T23:01:05.690Z,99623.47
2023-01-08T23:03:33.357Z,99619.31
2023-01-08T23:06:02.064Z,99616.44
2023-01-08T23:08:30.867Z,99622.94
2023-01-08T23:10:58.541Z,99625.03
2023-01-08T23:13:25.963Z,99621.56
2023-01-08T23:15:53.367Z,99619.88
2023-01-08T23:18:20.769Z,99620.03
2023-01-08T23:20:48.230Z,99612.38
2023-01-08T23:23:15.685Z,99620.19
2023-01-08T23:25:44.479Z,99606.34
2023-01-08T23:28:11.851Z,99606.41
2023-01-08T23:30:41.654Z,99593.63
2023-01-08T23:33:09.154Z,99605.56
2023-01-08T23:35:36.628Z,99590.13
2023-01-08T23:38:04.574Z,99592.81
2023-01-08T23:40:31.990Z,99592.75
2023-01-08T23:43:00.774Z,99603.97
2023-01-08T23:45:28.299Z,99599.66
2023-01-08T23:47:55.753Z,99597.13
2023-01-08T23:50:23.141Z,99593.69
2023-01-08T23:52:50.591Z,99594.63
2023-01-08T23:55:18.877Z,99584.19
2023-01-08T23:57:46.405Z,99591.09
